Time;durP1;ratioP1;P1;durP2;ratioP2;P2;SDS_P1;SDS_P2;PMS_P1;PMS_P2;Temp;Humidity;BMP_temperature;BMP_pressure;BME280_temperature;BME280_humidity;BME280_pressure;Samples;Min_cycle;Max_cycle;Signal;HPM_P1;HPM_P2
2020/12/27 00:00:26;;;;;;;122.07;45.77;;;;;;;0.73;76.37;100694.09;4724268;61;1138659;-89
2020/12/27 00:05:35;;;;;;;40.43;18.23;;;;;;;0.76;76.41;100679.67;4739163;60;1140365;-89
2020/12/27 00:10:40;;;;;;;33.50;12.00;;;;;;;0.78;76.24;100687.41;4725768;60;1138810;-89
2020/12/27 00:15:46;;;;;;;27.13;9.77;;;;;;;0.80;76.16;100678.64;4772557;60;1138861;-89
2020/12/27 00:20:51;;;;;;;21.77;8.63;;;;;;;0.80;75.73;100664.33;4622899;63;1136448;-89
2020/12/27 00:25:57;;;;;;;13.28;4.40;;;;;;;0.79;75.38;100665.23;4604444;61;1136935;-90
2020/12/27 00:31:02;;;;;;;20.20;7.75;;;;;;;0.80;75.52;100659.12;4609204;61;1136708;-89
2020/12/27 00:36:08;;;;;;;18.07;8.33;;;;;;;0.80;75.78;100652.61;4623618;61;1136273;-89
2020/12/27 00:41:15;;;;;;;13.90;6.03;;;;;;;0.81;75.67;100645.20;4624614;61;1136744;-89
2020/12/27 00:46:22;;;;;;;11.63;4.70;;;;;;;0.81;75.43;100630.88;4609669;62;1136311;-89
2020/12/27 00:51:29;;;;;;;21.00;6.93;;;;;;;0.81;74.99;100635.23;4697816;63;21102;-89
2020/12/27 00:56:34;;;;;;;9.57;3.93;;;;;;;0.81;75.09;100616.56;4604429;62;1132019;-89
2020/12/27 01:01:44;;;;;;;10.67;4.83;;;;;;;0.84;74.65;100626.87;4652867;61;1134256;-88
2020/12/27 01:06:52;;;;;;;13.80;6.20;;;;;;;0.84;74.65;100626.87;4745043;60;1136332;-89
2020/12/27 01:11:58;;;;;;;13.28;5.47;;;;;;;0.82;74.95;100618.27;4744356;60;1136811;-89
2020/12/27 01:17:04;;;;;;;10.95;5.17;;;;;;;0.80;74.59;100606.20;4744730;60;1136369;-89
2020/12/27 01:22:11;;;;;;;10.03;4.10;;;;;;;0.79;74.96;100607.95;4743057;59;1137112;-89
2020/12/27 01:27:18;;;;;;;12.27;5.47;;;;;;;0.76;74.51;100598.13;4737770;60;1136310;-88
2020/12/27 01:32:24;;;;;;;10.38;5.15;;;;;;;0.74;74.68;100587.77;4741337;60;1136697;-89
2020/12/27 01:37:30;;;;;;;20.50;6.80;;;;;;;0.73;74.58;100591.28;4762516;60;1136310;-89
2020/12/27 01:42:36;;;;;;;8.10;3.83;;;;;;;0.73;74.66;100565.70;4757211;60;1136287;-89
2020/12/27 01:47:42;;;;;;;22.07;7.57;;;;;;;0.72;74.32;100557.04;4646006;61;1134228;-89
2020/12/27 01:52:48;;;;;;;13.43;6.03;;;;;;;0.73;74.89;100552.69;4824799;59;1136170;-90
2020/12/27 01:58:15;;;;;;;17.60;6.10;;;;;;;0.70;74.78;100549.73;4716394;62;1136334;-89
2020/12/27 02:03:23;;;;;;;17.07;7.10;;;;;;;0.69;74.84;100529.81;4686823;60;1136312;-89
2020/12/27 02:08:30;;;;;;;20.27;7.60;;;;;;;0.67;74.75;100532.92;4769147;60;1136194;-89
2020/12/27 02:13:50;;;;;;;12.27;5.30;;;;;;;0.64;74.86;100528.67;4824753;59;1136174;-89
2020/12/27 02:19:04;;;;;;;11.43;5.63;;;;;;;0.61;74.74;100511.05;4698894;61;1136441;-89
2020/12/27 02:24:06;;;;;;;11.20;5.47;;;;;;;0.59;74.73;100489.44;4660575;61;1137183;-90
2020/12/27 02:29:12;;;;;;;6.40;3.70;;;;;;;0.56;74.64;100485.19;4741422;61;1136235;-90
2020/12/27 02:34:18;;;;;;;9.80;5.03;;;;;;;0.53;74.66;100478.78;4699447;62;1134745;-90
2020/12/27 02:39:24;;;;;;;15.57;6.60;;;;;;;0.54;74.81;100474.43;4824880;59;1134213;-90
2020/12/27 02:49:47;;;;;;;17.97;6.60;;;;;;;0.57;74.83;100455.66;4837904;59;1136358;-89
2020/12/27 02:54:53;;;;;;;14.13;7.10;;;;;;;0.60;74.66;100448.19;4645346;61;1136361;-89
2020/12/27 03:00:00;;;;;;;14.33;6.67;;;;;;;0.61;74.83;100445.98;4816126;59;1136311;-89
2020/12/27 03:05:10;;;;;;;15.47;6.20;;;;;;;0.61;74.43;100440.78;4746566;60;1136343;-89
2020/12/27 03:10:16;;;;;;;15.27;6.60;;;;;;;0.59;74.34;100433.03;4815893;61;21172;-89
2020/12/27 03:15:24;;;;;;;15.23;7.23;;;;;;;0.58;74.20;100424.83;4726254;60;1132453;-90
2020/12/27 03:20:40;;;;;;;6.97;3.70;;;;;;;0.58;74.34;100414.88;4741935;60;1136406;-89
2020/12/27 03:25:47;;;;;;;16.13;8.17;;;;;;;0.57;73.98;100412.72;4629882;62;1134328;-89
2020/12/27 03:30:53;;;;;;;10.82;5.60;;;;;;;0.51;73.91;100396.03;4647637;62;1136770;-89
2020/12/27 03:36:00;;;;;;;13.25;6.33;;;;;;;0.48;73.59;100387.03;4781088;60;1137166;-90
2020/12/27 03:41:07;;;;;;;10.67;5.83;;;;;;;0.44;73.70;100374.22;4595559;61;1136607;-88
2020/12/27 03:46:20;;;;;;;15.72;5.75;;;;;;;0.42;73.44;100370.38;4718286;62;1134246;-90
2020/12/27 03:51:32;;;;;;;;;;;;;;;0.38;73.49;100366.19;4814235;59;1136359;-89
2020/12/27 03:56:38;;;;;;;16.47;6.73;;;;;;;0.40;73.80;100365.68;4783165;59;971846;-90
2020/12/27 04:01:45;;;;;;;12.23;5.60;;;;;;;0.39;73.69;100356.18;4725393;61;1133362;-89
2020/12/27 04:06:51;;;;;;;15.97;6.47;;;;;;;0.39;73.70;100354.88;4720487;60;1136262;-89
2020/12/27 04:12:13;;;;;;;12.43;6.07;;;;;;;0.38;73.42;100351.88;4722953;61;1136169;-89
2020/12/27 04:17:15;;;;;;;17.17;6.37;;;;;;;0.37;72.89;100346.28;4723877;60;1136431;-89
2020/12/27 04:22:21;;;;;;;21.90;7.30;;;;;;;0.38;73.04;100332.37;4781004;61;1134320;-89
2020/12/27 04:27:31;;;;;;;15.83;7.43;;;;;;;0.35;73.10;100341.59;4799027;61;21239;-89
2020/12/27 04:32:38;;;;;;;16.67;7.37;;;;;;;0.28;73.11;100341.00;4564618;63;1132331;-89
2020/12/27 04:38:00;;;;;;;11.60;4.87;;;;;;;0.25;73.34;100328.55;4687350;61;1136402;-89
2020/12/27 04:43:07;;;;;;;10.85;5.17;;;;;;;0.20;73.56;100314.41;4683622;60;1136814;-89
2020/12/27 04:48:17;;;;;;;15.93;7.17;;;;;;;0.15;73.71;100313.77;4571864;63;1137076;-88
2020/12/27 04:53:37;;;;;;;12.40;6.40;;;;;;;0.12;73.99;100309.98;4741293;61;1136151;-88
2020/12/27 04:58:43;;;;;;;20.07;9.90;;;;;;;0.06;74.14;100304.15;4740903;61;1136462;-89
2020/12/27 05:03:52;;;;;;;20.73;9.23;;;;;;;0.00;74.41;100290.47;4709840;60;1136260;-88
2020/12/27 05:09:01;;;;;;;16.53;8.23;;;;;;;-0.05;74.59;100279.41;4730013;60;1136338;-86
2020/12/27 05:14:07;;;;;;;19.12;9.20;;;;;;;-0.09;74.67;100267.44;4595136;63;1138452;-89
2020/12/27 05:19:15;;;;;;;15.08;7.78;;;;;;;-0.13;74.73;100263.25;4597026;61;1138335;-88
2020/12/27 05:24:20;;;;;;;16.90;8.47;;;;;;;-0.15;74.87;100262.91;4615335;62;1138408;-88
2020/12/27 05:29:34;;;;;;;23.37;10.67;;;;;;;-0.20;74.77;100251.41;4654435;62;1138606;-88
2020/12/27 05:34:57;;;;;;;14.60;6.13;;;;;;;-0.23;75.02;100246.31;4419827;64;1140774;-88
2020/12/27 05:40:10;;;;;;;33.58;13.10;;;;;;;-0.24;75.03;100251.12;4580354;63;1138362;-88
2020/12/27 05:45:27;;;;;;;22.83;9.03;;;;;;;-0.27;75.05;100237.39;4547685;63;1140521;-88
2020/12/27 05:50:40;;;;;;;12.75;6.25;;;;;;;-0.30;75.15;100234.90;4536447;63;1138461;-88
2020/12/27 05:55:51;;;;;;;17.30;7.80;;;;;;;-0.34;75.01;100228.14;4406836;63;1138446;-88
2020/12/27 06:01:00;;;;;;;11.33;5.37;;;;;;;-0.39;74.84;100214.86;4427430;65;1139555;-87
2020/12/27 06:06:12;;;;;;;11.88;4.75;;;;;;;-0.39;74.84;100214.86;4513144;62;1138518;-87
2020/12/27 06:11:25;;;;;;;16.32;6.15;;;;;;;-0.39;74.87;100212.27;4825226;61;1138389;-88
2020/12/27 06:16:54;;;;;;;16.47;6.97;;;;;;;-0.37;74.79;100185.78;4766487;60;1138461;-88
2020/12/27 06:22:22;;;;;;;17.80;6.70;;;;;;;-0.33;74.63;100185.22;4641544;61;1138441;-89
2020/12/27 06:27:31;;;;;;;14.23;6.00;;;;;;;-0.33;74.33;100185.67;4672547;60;1138490;-88
2020/12/27 06:32:44;;;;;;;17.77;5.60;;;;;;;-0.38;74.27;100158.55;4675357;61;1138296;-88
2020/12/27 06:37:50;;;;;;;27.20;10.88;;;;;;;-0.38;74.27;100158.55;4698614;61;1138448;-88
2020/12/27 06:43:23;;;;;;;30.23;15.95;;;;;;;-0.37;74.33;100162.84;4642240;61;1140622;-89
2020/12/27 06:48:45;;;;;;;19.50;8.73;;;;;;;-0.39;74.45;100155.56;4754573;60;1138543;-88
2020/12/27 06:53:58;;;;;;;20.30;7.70;;;;;;;-0.38;74.39;100149.02;4676745;61;1138477;-87
2020/12/27 06:59:06;;;;;;;9.30;4.90;;;;;;;-0.40;74.31;100144.33;4709414;61;1136824;-88
2020/12/27 07:04:18;;;;;;;11.23;5.23;;;;;;;-0.38;74.18;100131.28;4631510;60;1137239;-88
2020/12/27 07:09:27;;;;;;;18.17;7.90;;;;;;;-0.40;74.12;100127.44;4638601;61;1138440;-87
2020/12/27 07:14:43;;;;;;;11.07;6.70;;;;;;;-0.41;73.97;100119.25;4501435;62;1138494;-88
2020/12/27 07:19:52;;;;;;;9.90;6.63;;;;;;;-0.39;74.01;100131.73;4496321;62;1138609;-88
2020/12/27 07:25:00;;;;;;;11.27;5.80;;;;;;;-0.38;74.12;100113.94;4608779;63;1134213;-88
2020/12/27 07:30:08;;;;;;;12.43;7.53;;;;;;;-0.37;73.71;100091.41;4526749;62;1138654;-88
2020/12/27 07:35:14;;;;;;;15.77;7.30;;;;;;;-0.40;74.01;100078.53;4689543;61;1138308;-88
2020/12/27 07:40:20;;;;;;;10.50;4.60;;;;;;;-0.42;73.51;100073.84;4672686;62;1138402;-88
2020/12/27 07:45:25;;;;;;;15.10;6.27;;;;;;;-0.44;72.84;100073.91;4697690;62;1138463;-88
2020/12/27 07:50:31;;;;;;;19.43;7.57;;;;;;;-0.43;73.14;100065.20;4695883;62;1138755;-88
2020/12/27 07:55:39;;;;;;;14.70;7.53;;;;;;;-0.36;73.53;100052.83;4657699;61;1138381;-88
2020/12/27 08:00:45;;;;;;;15.73;6.37;;;;;;;-0.31;73.18;100037.06;4716270;61;1138415;-88
2020/12/27 08:05:54;;;;;;;9.97;4.53;;;;;;;-0.28;72.91;100033.86;4638206;61;1138443;-87
2020/12/27 08:11:00;;;;;;;11.53;5.20;;;;;;;-0.26;72.22;100024.70;4722205;61;1132177;-86
2020/12/27 08:16:09;;;;;;;9.03;4.40;;;;;;;-0.24;71.98;100033.29;4727259;63;21171;-86
2020/12/27 08:21:19;;;;;;;11.43;5.17;;;;;;;-0.24;71.73;100026.80;4730971;61;21547;-87
2020/12/27 08:26:25;;;;;;;8.93;4.30;;;;;;;-0.21;71.54;100007.19;4728382;63;21445;-87
2020/12/27 08:31:30;;;;;;;10.37;5.10;;;;;;;-0.19;70.73;100000.17;4657184;60;1132195;-87
2020/12/27 08:36:39;;;;;;;34.53;10.93;;;;;;;-0.15;71.15;100009.05;4645768;60;1138261;-87
2020/12/27 08:42:07;;;;;;;13.23;5.90;;;;;;;-0.10;71.33;99988.92;4728284;63;21182;-87
2020/12/27 08:48:00;;;;;;;66.30;28.43;;;;;;;-0.05;70.93;99987.44;4734807;63;21179;-87
2020/12/27 08:53:09;;;;;;;20.67;10.53;;;;;;;0.02;70.67;99982.80;4763801;62;21189;-89
2020/12/27 08:58:15;;;;;;;13.30;5.73;;;;;;;0.07;70.76;99974.36;4840726;61;21111;-86
2020/12/27 09:03:20;;;;;;;20.97;7.73;;;;;;;0.07;69.49;99961.36;4763792;62;21482;-87
2020/12/27 09:08:25;;;;;;;7.03;3.73;;;;;;;0.16;69.78;99951.84;4746589;59;1130012;-87
2020/12/27 09:13:41;;;;;;;14.10;6.23;;;;;;;0.23;68.30;99945.48;4623969;61;1132061;-86
2020/12/27 09:18:49;;;;;;;17.20;6.57;;;;;;;0.24;68.44;99940.67;4757965;61;21180;-87
2020/12/27 09:23:55;;;;;;;22.47;6.90;;;;;;;0.25;67.87;99930.66;4783904;61;21446;-86
2020/12/27 09:29:03;;;;;;;21.17;7.40;;;;;;;0.28;67.39;99922.72;4763348;61;1130209;-86
2020/12/27 09:34:14;;;;;;;7.70;2.60;;;;;;;0.35;67.69;99929.31;4656010;61;1134102;-87
2020/12/27 09:39:23;;;;;;;19.10;7.37;;;;;;;0.41;68.05;99908.70;4674184;62;21124;-86
2020/12/27 09:44:31;;;;;;;15.97;6.43;;;;;;;0.46;67.73;99891.13;4724177;61;1130039;-86
2020/12/27 09:49:37;;;;;;;18.77;6.50;;;;;;;0.51;66.21;99878.28;4690583;60;1134195;-86
2020/12/27 09:54:45;;;;;;;34.57;15.57;;;;;;;0.52;66.38;99883.02;4746820;60;1134181;-87
2020/12/27 09:59:54;;;;;;;21.17;8.97;;;;;;;0.60;67.21;99877.02;4765675;60;1136318;-87
2020/12/27 10:05:00;;;;;;;7.73;3.17;;;;;;;0.63;65.36;99863.84;4760927;61;1134324;-86
2020/12/27 10:10:08;;;;;;;15.50;6.83;;;;;;;0.66;63.91;99858.50;4703067;61;1132081;-86
2020/12/27 10:15:14;;;;;;;15.83;5.45;;;;;;;0.67;64.33;99836.31;4771474;60;1134400;-86
2020/12/27 10:20:19;;;;;;;26.07;8.90;;;;;;;0.70;64.56;99830.12;4739491;61;1134265;-86
2020/12/27 10:25:25;;;;;;;14.83;6.37;;;;;;;0.75;65.14;99825.55;4833522;61;21207;-86
2020/12/27 10:30:30;;;;;;;18.00;7.37;;;;;;;0.78;63.56;99824.07;4792141;61;1130070;-86
2020/12/27 10:35:36;;;;;;;26.87;9.93;;;;;;;0.83;62.99;99797.37;4692157;60;1134458;-86
2020/12/27 10:40:41;;;;;;;42.63;12.17;;;;;;;0.86;62.50;99803.73;4715746;60;1134092;-86
2020/12/27 10:45:48;;;;;;;25.43;7.43;;;;;;;0.88;61.91;99792.79;4794256;61;21175;-86
2020/12/27 10:50:53;;;;;;;24.20;6.20;;;;;;;0.89;61.92;99781.46;4801985;61;21211;-86
2020/12/27 10:55:59;;;;;;;25.70;9.57;;;;;;;0.95;62.91;99779.84;4814666;61;21183;-86
2020/12/27 11:01:04;;;;;;;43.97;17.83;;;;;;;0.97;62.01;99764.14;4693082;63;21164;-86
2020/12/27 11:06:10;;;;;;;16.37;6.17;;;;;;;0.98;60.81;99752.81;4701621;61;21491;-86
2020/12/27 11:11:19;;;;;;;41.70;14.00;;;;;;;1.02;62.09;99743.93;4748314;61;21199;-84
2020/12/27 11:16:28;;;;;;;28.17;10.03;;;;;;;1.01;62.81;99733.98;4799855;61;21400;-86
2020/12/27 11:21:33;;;;;;;25.67;6.53;;;;;;;1.11;62.15;99739.55;4812865;61;21564;-86
2020/12/27 11:26:39;;;;;;;10.83;5.63;;;;;;;1.15;61.98;99728.06;4800521;61;21786;-86
2020/12/27 11:31:44;;;;;;;17.47;7.50;;;;;;;1.18;61.74;99725.30;4815999;60;21163;-86
2020/12/27 11:36:50;;;;;;;29.93;8.97;;;;;;;1.28;60.58;99710.02;4756243;61;1130044;-86
2020/12/27 11:41:56;;;;;;;15.40;6.70;;;;;;;1.39;60.92;99715.50;4739440;61;1134490;-86
2020/12/27 11:47:07;;;;;;;19.07;7.53;;;;;;;1.51;60.85;99696.64;4862134;60;1130093;-87
2020/12/27 11:52:12;;;;;;;15.80;7.87;;;;;;;1.68;59.63;99686.61;4843504;60;21196;-88
2020/12/27 11:57:18;;;;;;;34.10;13.47;;;;;;;1.87;60.93;99662.49;4846936;60;21508;-88
2020/12/27 12:02:24;;;;;;;18.30;7.53;;;;;;;2.28;60.91;99647.59;4861921;60;21101;-88
2020/12/27 12:07:31;;;;;;;22.80;8.70;;;;;;;2.55;57.70;99632.94;4799292;60;1130071;-87
2020/12/27 12:12:37;;;;;;;33.83;12.97;;;;;;;2.64;56.46;99631.08;4754226;59;1134211;-87
2020/12/27 12:17:42;;;;;;;20.23;8.40;;;;;;;2.70;56.94;99614.22;4684792;61;1136108;-87
2020/12/27 12:22:48;;;;;;;58.47;15.20;;;;;;;2.59;56.66;99578.80;4658355;60;1134348;-88
2020/12/27 12:27:53;;;;;;;86.47;21.43;;;;;;;2.58;57.54;99579.26;4719101;59;1136636;-87
2020/12/27 12:32:59;;;;;;;88.43;21.73;;;;;;;2.68;56.85;99571.23;4812098;59;21594;-87
2020/12/27 12:38:05;;;;;;;54.73;14.68;;;;;;;2.94;57.46;99555.74;4703105;59;1132493;-87
2020/12/27 12:43:11;;;;;;;63.07;16.53;;;;;;;3.09;57.15;99537.81;4745660;59;1136231;-86
2020/12/27 12:48:17;;;;;;;111.73;24.93;;;;;;;3.13;55.57;99531.00;4717191;59;1136596;-87
2020/12/27 12:53:22;;;;;;;44.73;12.33;;;;;;;3.22;55.65;99517.81;4740870;59;1138275;-87
2020/12/27 12:58:28;;;;;;;20.57;8.33;;;;;;;3.24;56.36;99508.58;4805705;60;21221;-87
2020/12/27 13:03:33;;;;;;;18.33;6.50;;;;;;;3.16;55.66;99492.94;4714311;59;1129920;-85
2020/12/27 13:08:40;;;;;;;26.07;9.90;;;;;;;2.93;54.13;99491.39;4717318;59;1134047;-86
2020/12/27 13:13:45;;;;;;;35.30;13.53;;;;;;;2.84;55.88;99487.59;4725138;59;1134160;-87
2020/12/27 13:18:51;;;;;;;40.33;12.47;;;;;;;2.81;56.06;99486.00;4749727;59;1136595;-86
2020/12/27 13:23:56;;;;;;;33.90;11.17;;;;;;;2.77;56.14;99474.53;4641091;59;1136647;-87
2020/12/27 13:29:02;;;;;;;46.47;11.77;;;;;;;2.67;55.59;99461.69;4672225;60;1136306;-86
2020/12/27 13:34:08;;;;;;;17.47;6.03;;;;;;;2.54;55.95;99442.50;4648630;60;1437423;-87
2020/12/27 13:39:13;;;;;;;23.90;8.13;;;;;;;2.42;56.62;99432.36;4726338;60;1134088;-86
2020/12/27 13:44:19;;;;;;;29.77;10.00;;;;;;;2.30;57.69;99420.88;4726761;60;1134099;-86
2020/12/27 13:49:27;;;;;;;20.43;9.07;;;;;;;2.18;56.83;99410.36;4740411;60;1136246;-86
2020/12/27 13:54:33;;;;;;;32.63;9.27;;;;;;;2.10;57.42;99393.89;4811128;59;37692;-87
2020/12/27 13:59:38;;;;;;;21.00;8.50;;;;;;;2.00;57.25;99397.50;4708489;61;1130130;-86
2020/12/27 14:04:44;;;;;;;21.47;7.33;;;;;;;1.93;57.39;99403.20;4647548;61;1134362;-87
2020/12/27 14:09:50;;;;;;;25.70;8.20;;;;;;;1.82;57.58;99386.90;4736210;60;1134076;-86
2020/12/27 14:14:56;;;;;;;47.83;14.30;;;;;;;1.72;57.74;99378.77;4701040;60;1134341;-86
2020/12/27 14:20:01;;;;;;;50.63;20.57;;;;;;;1.68;59.29;99378.57;4668098;61;1136248;-86
2020/12/27 14:25:07;;;;;;;31.40;11.93;;;;;;;1.61;59.55;99362.94;4739110;62;21198;-86
2020/12/27 14:30:13;;;;;;;29.07;12.07;;;;;;;1.53;60.01;99361.73;4712328;62;21120;-85
2020/12/27 14:35:19;;;;;;;82.88;22.77;;;;;;;1.45;60.52;99352.21;4639795;61;1132547;-85
2020/12/27 14:40:25;;;;;;;20.60;8.17;;;;;;;1.38;60.94;99341.30;4637789;61;1136437;-86
2020/12/27 14:45:30;;;;;;;152.03;35.47;;;;;;;1.31;61.21;99311.34;4629696;61;1134085;-85
2020/12/27 14:50:36;;;;;;;46.47;11.57;;;;;;;1.25;61.49;99306.02;4694324;62;21194;-86
2020/12/27 14:55:41;;;;;;;39.13;9.43;;;;;;;1.21;61.58;99306.31;4690416;62;21286;-86
2020/12/27 15:00:47;;;;;;;69.53;18.27;;;;;;;1.16;61.35;99288.34;4727338;62;21179;-86
2020/12/27 15:05:53;;;;;;;125.40;22.40;;;;;;;1.13;61.29;99282.47;4715585;62;21537;-86
2020/12/27 15:11:00;;;;;;;40.10;9.60;;;;;;;1.12;61.60;99289.45;4728791;62;21241;-86
2020/12/27 15:16:06;;;;;;;114.57;24.70;;;;;;;1.12;61.46;99271.69;4760625;61;21545;-86
2020/12/27 15:21:11;;;;;;;43.53;13.37;;;;;;;1.11;61.17;99274.75;4824774;59;1134941;-87
2020/12/27 15:26:17;;;;;;;62.53;16.50;;;;;;;1.10;60.92;99267.03;4858146;59;1136248;-85
2020/12/27 15:31:23;;;;;;;271.87;55.80;;;;;;;1.10;60.70;99272.23;4862017;59;1136339;-86
2020/12/27 15:36:28;;;;;;;72.83;19.00;;;;;;;1.10;61.36;99271.77;4670151;60;1138448;-85
2020/12/27 15:41:34;;;;;;;79.20;22.87;;;;;;;1.08;61.33;99251.49;4817783;60;1134226;-86
2020/12/27 15:46:39;;;;;;;48.03;12.93;;;;;;;1.08;60.55;99251.95;4895957;59;1136653;-86
2020/12/27 15:51:45;;;;;;;85.50;27.30;;;;;;;1.11;60.88;99234.39;4741685;60;1136491;-86
2020/12/27 15:56:51;;;;;;;24.97;10.80;;;;;;;1.14;60.86;99248.54;4788991;59;1136203;-85
2020/12/27 16:01:56;;;;;;;19.13;6.37;;;;;;;1.17;60.34;99232.73;4765794;62;21204;-88
2020/12/27 16:07:02;;;;;;;20.30;8.37;;;;;;;1.18;59.80;99208.37;4708167;61;1130462;-88
2020/12/27 16:12:08;;;;;;;32.17;13.13;;;;;;;1.20;60.55;99203.92;4647972;62;1134126;-86
2020/12/27 16:17:13;;;;;;;47.10;19.43;;;;;;;1.20;60.71;99213.03;4749354;60;1136193;-88
2020/12/27 16:22:20;;;;;;;44.23;19.55;;;;;;;1.18;60.20;99186.70;4829254;60;1136689;-87
2020/12/27 16:27:28;;;;;;;52.17;19.60;;;;;;;1.17;60.19;99174.15;4850540;60;1136222;-87
2020/12/27 16:32:33;;;;;;;44.77;15.90;;;;;;;1.15;60.18;99168.66;4830140;59;1136457;-87
2020/12/27 16:37:38;;;;;;;39.10;17.20;;;;;;;1.15;59.80;99170.80;4830468;59;1136281;-88
2020/12/27 16:42:44;;;;;;;52.40;19.00;;;;;;;1.16;60.43;99175.55;4850076;60;1136168;-88
2020/12/27 16:47:49;;;;;;;38.43;14.37;;;;;;;1.15;60.29;99169.96;4925177;60;21152;-88
2020/12/27 16:52:55;;;;;;;59.53;20.43;;;;;;;1.14;60.22;99157.88;4925544;60;21160;-88
2020/12/27 16:58:01;;;;;;;40.47;14.03;;;;;;;1.13;60.53;99156.19;4831772;60;1132021;-88
2020/12/27 17:03:06;;;;;;;51.00;17.53;;;;;;;1.12;60.34;99138.89;4831366;60;1136215;-88
2020/12/27 17:08:12;;;;;;;51.43;20.67;;;;;;;1.12;59.89;99128.48;4814593;60;1254045;-88
2020/12/27 17:13:17;;;;;;;55.55;19.35;;;;;;;1.11;59.50;99124.20;4862253;59;1137147;-88
2020/12/27 17:18:23;;;;;;;25.87;9.37;;;;;;;1.11;59.93;99126.34;4862146;59;1136280;-87
2020/12/27 17:23:28;;;;;;;27.73;9.87;;;;;;;1.09;59.98;99116.95;4818737;59;1134416;-87
2020/12/27 17:28:34;;;;;;;38.80;12.47;;;;;;;1.03;59.67;99116.87;4824521;59;1134079;-88
2020/12/27 17:33:40;;;;;;;27.10;8.93;;;;;;;1.01;60.02;99100.51;4834189;59;1136343;-88
2020/12/27 17:38:45;;;;;;;14.50;6.40;;;;;;;1.01;60.42;99096.60;4850267;59;1134142;-88
2020/12/27 17:43:51;;;;;;;49.37;15.47;;;;;;;0.98;60.20;99082.47;4859228;59;1134038;-87
2020/12/27 17:48:57;;;;;;;27.83;10.87;;;;;;;0.98;60.71;99083.30;4828435;60;1136322;-88
2020/12/27 17:54:03;;;;;;;65.50;24.15;;;;;;;0.99;60.60;99086.75;4818200;59;1136419;-87
2020/12/27 17:59:08;;;;;;;27.27;11.17;;;;;;;1.01;61.06;99077.91;4814125;59;1136166;-89
2020/12/27 18:04:14;;;;;;;23.40;9.57;;;;;;;1.01;61.07;99061.46;4831746;59;1136228;-87
2020/12/27 18:09:19;;;;;;;25.43;9.00;;;;;;;0.97;61.56;99068.61;4852220;59;1134470;-88
2020/12/27 18:14:26;;;;;;;39.20;11.33;;;;;;;0.93;61.61;99048.06;4815187;59;1134364;-88
2020/12/27 18:19:31;;;;;;;52.07;18.63;;;;;;;0.92;61.78;99039.89;4906399;59;1134313;-88
2020/12/27 18:24:38;;;;;;;45.87;17.23;;;;;;;0.93;62.25;99042.86;4951792;60;21167;-88
2020/12/27 18:29:43;;;;;;;127.17;44.80;;;;;;;0.94;62.46;99028.91;4877379;59;1132134;-88
2020/12/27 18:34:49;;;;;;;46.33;15.70;;;;;;;0.89;62.40;99033.13;4859704;59;1138419;-88
2020/12/27 18:39:54;;;;;;;26.13;9.67;;;;;;;0.90;62.66;99020.95;4954318;60;21175;-87
2020/12/27 18:45:00;;;;;;;46.30;15.63;;;;;;;0.87;62.33;99001.16;4914444;59;1130092;-88
2020/12/27 18:50:06;;;;;;;31.50;11.80;;;;;;;0.84;62.58;98989.63;4879821;59;1136346;-88
2020/12/27 18:55:11;;;;;;;39.27;13.83;;;;;;;0.81;62.32;98966.39;4879997;59;1136177;-87
2020/12/27 19:00:17;;;;;;;44.43;14.53;;;;;;;0.83;62.67;98983.21;4863023;59;1136246;-88
2020/12/27 19:05:22;;;;;;;40.20;13.83;;;;;;;0.83;62.50;98951.98;4863717;59;1136355;-89
2020/12/27 19:10:29;;;;;;;53.60;18.50;;;;;;;0.83;62.81;98935.91;4957722;60;21155;-87
2020/12/27 19:15:34;;;;;;;55.10;18.00;;;;;;;0.84;63.00;98933.67;4899491;59;1132167;-88
2020/12/27 19:20:40;;;;;;;67.73;22.97;;;;;;;0.86;63.06;98932.28;4862412;59;1136236;-88
2020/12/27 19:25:45;;;;;;;60.93;19.13;;;;;;;0.86;63.15;98935.72;4915441;59;1136212;-88
2020/12/27 19:30:53;;;;;;;54.48;19.25;;;;;;;0.87;62.97;98922.23;4859226;59;1136439;-88
2020/12/27 19:36:03;;;;;;;37.17;11.53;;;;;;;0.82;62.65;98886.55;4880487;59;1136274;-87
2020/12/27 19:41:10;;;;;;;52.83;18.77;;;;;;;0.80;62.42;98898.83;4872578;59;1136269;-88
2020/12/27 19:46:25;;;;;;;57.80;22.47;;;;;;;0.78;62.59;98888.52;4863600;59;1136360;-88
2020/12/27 19:51:32;;;;;;;38.07;14.10;;;;;;;0.77;62.38;98876.43;4955076;60;21108;-89
2020/12/27 19:56:37;;;;;;;34.37;13.13;;;;;;;0.74;61.46;98863.64;4956705;60;21171;-89
2020/12/27 20:01:43;;;;;;;45.93;15.53;;;;;;;0.74;61.48;98853.70;4956517;60;21179;-89
2020/12/27 20:07:31;;;;;;;35.40;14.87;;;;;;;0.75;61.41;98855.38;4861495;58;1132130;-89
2020/12/27 20:12:44;;;;;;;43.87;16.27;;;;;;;0.75;61.18;98826.28;4795046;60;1136288;-88
2020/12/27 20:17:49;;;;;;;28.17;11.43;;;;;;;0.80;61.42;98828.10;4835833;59;1136846;-88
2020/12/27 20:22:55;;;;;;;37.80;14.73;;;;;;;0.83;61.30;98809.70;4728514;61;1136541;-88
2020/12/27 20:28:01;;;;;;;25.30;10.10;;;;;;;0.86;61.70;98793.05;4735497;62;1134385;-87
2020/12/27 20:33:07;;;;;;;21.27;8.87;;;;;;;0.88;61.70;98799.83;4673421;62;1136315;-88
2020/12/27 20:38:14;;;;;;;29.83;11.67;;;;;;;0.92;62.01;98798.67;4693924;61;1134369;-86
2020/12/27 20:43:19;;;;;;;28.73;10.50;;;;;;;0.96;62.28;98804.52;4703493;61;1136284;-87
2020/12/27 20:48:25;;;;;;;20.70;8.97;;;;;;;0.99;62.33;98788.70;4784578;62;21614;-87
2020/12/27 20:53:32;;;;;;;33.33;12.63;;;;;;;0.99;62.25;98775.22;4708844;62;1130136;-88
2020/12/27 20:58:38;;;;;;;32.37;12.90;;;;;;;1.02;62.60;98774.19;4751131;62;1134265;-88
2020/12/27 21:03:43;;;;;;;40.80;15.43;;;;;;;1.03;62.73;98753.73;4734197;61;1136497;-88
2020/12/27 21:08:49;;;;;;;24.73;11.10;;;;;;;1.06;63.27;98756.14;4742045;60;1136213;-87
2020/12/27 21:13:54;;;;;;;26.93;11.27;;;;;;;1.06;63.60;98744.42;4703477;61;1136465;-86
2020/12/27 21:19:00;;;;;;;29.07;10.90;;;;;;;1.13;63.93;98742.22;4824150;59;1136190;-87
2020/12/27 21:24:07;;;;;;;27.23;11.10;;;;;;;1.15;64.26;98740.36;4854196;59;1136377;-87
2020/12/27 21:29:48;;;;;;;24.20;9.17;;;;;;;1.19;64.62;98737.91;4793242;59;1136417;-87
2020/12/27 21:34:59;;;;;;;27.57;9.43;;;;;;;1.23;64.83;98738.05;4669834;62;1134247;-88
2020/12/27 21:40:05;;;;;;;29.63;11.67;;;;;;;1.26;65.11;98739.15;4834877;60;1132145;-88
2020/12/27 21:45:10;;;;;;;29.20;9.93;;;;;;;1.27;65.29;98732.53;4642395;61;1136727;-88
2020/12/27 21:50:16;;;;;;;29.80;11.77;;;;;;;1.32;65.43;98718.75;4760481;60;1134692;-89
2020/12/27 21:55:22;;;;;;;29.53;10.90;;;;;;;1.34;65.46;98709.06;4843135;59;1136510;-87
2020/12/27 22:00:27;;;;;;;32.63;11.87;;;;;;;1.36;65.47;98714.16;4862000;59;1136267;-89
2020/12/27 22:05:33;;;;;;;43.70;18.30;;;;;;;1.37;65.38;98715.84;4843317;59;1136270;-88
2020/12/27 22:10:38;;;;;;;26.20;9.47;;;;;;;1.35;65.44;98703.38;4862250;59;1136291;-89
2020/12/27 22:15:48;;;;;;;32.90;12.43;;;;;;;1.34;65.49;98682.19;4879451;59;1134621;-88
2020/12/27 22:20:54;;;;;;;43.37;18.30;;;;;;;1.34;65.55;98686.09;4842499;59;1136417;-88
2020/12/27 22:25:59;;;;;;;63.00;27.00;;;;;;;1.30;65.54;98691.14;4899353;59;1134246;-88
2020/12/27 22:31:11;;;;;;;49.83;20.13;;;;;;;1.28;65.50;98682.59;4862054;59;1136219;-89
2020/12/27 22:36:22;;;;;;;27.60;11.83;;;;;;;1.25;65.53;98670.61;4840580;59;1136709;-88
2020/12/27 22:41:52;;;;;;;29.27;10.57;;;;;;;1.24;65.61;98678.53;4935197;60;21200;-88
2020/12/27 22:47:06;;;;;;;25.13;8.67;;;;;;;1.23;65.64;98665.14;4860867;58;1132430;-88
2020/12/27 22:52:11;;;;;;;28.23;11.43;;;;;;;1.21;65.87;98669.18;4842667;59;1134063;-88
2020/12/27 22:57:18;;;;;;;24.50;11.20;;;;;;;1.23;66.03;98661.23;4875477;59;1136609;-88
2020/12/27 23:02:23;;;;;;;27.17;10.50;;;;;;;1.23;66.23;98645.61;4842587;59;1136292;-88
2020/12/27 23:07:29;;;;;;;28.73;11.57;;;;;;;1.22;66.47;98636.97;4937222;60;21144;-90
2020/12/27 23:12:34;;;;;;;23.60;10.17;;;;;;;1.20;66.77;98623.25;4918633;59;1132088;-88
2020/12/27 23:17:40;;;;;;;29.80;10.93;;;;;;;1.23;66.80;98616.50;4843325;58;1136388;-88
2020/12/27 23:22:45;;;;;;;30.37;13.00;;;;;;;1.23;66.90;98615.20;4862037;59;1136307;-88
2020/12/27 23:27:51;;;;;;;27.50;10.97;;;;;;;1.24;67.03;98613.43;4862062;59;1136192;-88